sensor_id;sensor_type;location;lat;lon;timestamp;pressure;altitude;pressure_sealevel;temperature;humidity
4617;BME280;2321;42.704;23.384;2023-04-05T00:02:09;94955.34;;;0.81;nan
4617;BME280;2321;42.704;23.384;2023-04-05T00:04:38;94961.53;;;0.80;nan
4617;BME280;2321;42.704;23.384;2023-04-05T00:07:15;94950.38;;;0.78;nan
4617;BME280;2321;42.704;23.384;2023-04-05T00:09:43;94940.56;;;0.80;nan
4617;BME280;2321;42.704;23.384;2023-04-05T00:12:10;94941.41;;;0.81;nan
4617;BME280;2321;42.704;23.384;2023-04-05T00:14:38;94941.28;;;0.82;nan
4617;BME280;2321;42.704;23.384;2023-04-05T00:17:05;94943.75;;;0.84;nan
4617;BME280;2321;42.704;23.384;2023-04-05T00:19:32;94947.19;;;0.84;nan
4617;BME280;2321;42.704;23.384;2023-04-05T00:22:01;94948.03;;;0.85;nan
4617;BME280;2321;42.704;23.384;2023-04-05T00:24:28;94944.84;;;0.91;nan
4617;BME280;2321;42.704;23.384;2023-04-05T00:26:55;94939.88;;;0.88;nan
4617;BME280;2321;42.704;23.384;2023-04-05T00:29:22;94947.88;;;0.86;nan
4617;BME280;2321;42.704;23.384;2023-04-05T00:31:50;94947.47;;;0.81;nan
4617;BME280;2321;42.704;23.384;2023-04-05T00:34:17;94957.81;;;0.83;nan
4617;BME280;2321;42.704;23.384;2023-04-05T00:36:44;94951.19;;;0.89;nan
4617;BME280;2321;42.704;23.384;2023-04-05T00:39:11;94955.06;;;0.84;nan
4617;BME280;2321;42.704;23.384;2023-04-05T00:41:38;94957.38;;;0.88;nan
4617;BME280;2321;42.704;23.384;2023-04-05T00:44:05;94958.78;;;0.92;nan
4617;BME280;2321;42.704;23.384;2023-04-05T00:46:33;94955.59;;;0.88;nan
4617;BME280;2321;42.704;23.384;2023-04-05T00:49:03;94951.47;;;0.85;nan
4617;BME280;2321;42.704;23.384;2023-04-05T00:51:30;94949.81;;;0.84;nan
4617;BME280;2321;42.704;23.384;2023-04-05T00:53:59;94965.28;;;0.78;nan
4617;BME280;2321;42.704;23.384;2023-04-05T00:56:27;94966.94;;;0.79;nan
4617;BME280;2321;42.704;23.384;2023-04-05T00:58:54;94960.28;;;0.84;nan
4617;BME280;2321;42.704;23.384;2023-04-05T01:01:24;94955.06;;;0.84;nan
4617;BME280;2321;42.704;23.384;2023-04-05T01:03:54;94958.34;;;0.86;nan
4617;BME280;2321;42.704;23.384;2023-04-05T01:06:43;94957.81;;;0.83;nan
4617;BME280;2321;42.704;23.384;2023-04-05T01:09:20;94959.84;;;0.89;nan
4617;BME280;2321;42.704;23.384;2023-04-05T01:11:51;94957.53;;;0.86;nan
4617;BME280;2321;42.704;23.384;2023-04-05T01:14:21;94966.22;;;0.86;nan
4617;BME280;2321;42.704;23.384;2023-04-05T01:16:47;94963.47;;;0.88;nan
4617;BME280;2321;42.704;23.384;2023-04-05T01:19:15;94969.53;;;0.89;nan
4617;BME280;2321;42.704;23.384;2023-04-05T01:25:04;94976.97;;;0.83;nan
4617;BME280;2321;42.704;23.384;2023-04-05T01:28:01;94971.06;;;0.81;nan
4617;BME280;2321;42.704;23.384;2023-04-05T01:30:34;94964.16;;;0.80;nan
4617;BME280;2321;42.704;23.384;2023-04-05T01:33:09;94969.28;;;0.82;nan
4617;BME280;2321;42.704;23.384;2023-04-05T01:35:46;94972.72;;;0.82;nan
4617;BME280;2321;42.704;23.384;2023-04-05T01:38:17;94987.06;;;0.78;nan
4617;BME280;2321;42.704;23.384;2023-04-05T01:40:47;94972.03;;;0.80;nan
4617;BME280;2321;42.704;23.384;2023-04-05T01:43:16;94974.34;;;0.83;nan
4617;BME280;2321;42.704;23.384;2023-04-05T01:45:45;94980.44;;;0.84;nan
4617;BME280;2321;42.704;23.384;2023-04-05T01:48:13;94973.53;;;0.83;nan
4617;BME280;2321;42.704;23.384;2023-04-05T01:50:40;94979.31;;;0.86;nan
4617;BME280;2321;42.704;23.384;2023-04-05T01:53:07;94958.50;;;0.85;nan
4617;BME280;2321;42.704;23.384;2023-04-05T01:55:34;94974.34;;;0.83;nan
4617;BME280;2321;42.704;23.384;2023-04-05T01:58:01;94982.66;;;0.89;nan
4617;BME280;2321;42.704;23.384;2023-04-05T02:00:28;94976.03;;;0.84;nan
4617;BME280;2321;42.704;23.384;2023-04-05T02:02:56;94986.22;;;0.88;nan
4617;BME280;2321;42.704;23.384;2023-04-05T02:05:23;94975.19;;;0.84;nan
4617;BME280;2321;42.704;23.384;2023-04-05T02:07:50;94975.88;;;0.86;nan
4617;BME280;2321;42.704;23.384;2023-04-05T02:10:17;94972.84;;;0.91;nan
4617;BME280;2321;42.704;23.384;2023-04-05T02:12:44;94977.91;;;0.92;nan
4617;BME280;2321;42.704;23.384;2023-04-05T02:15:11;94979.88;;;0.90;nan
4617;BME280;2321;42.704;23.384;2023-04-05T02:17:38;94981.38;;;0.93;nan
4617;BME280;2321;42.704;23.384;2023-04-05T02:20:12;94990.47;;;0.98;nan
4617;BME280;2321;42.704;23.384;2023-04-05T02:22:40;94992.84;;;0.92;nan
4617;BME280;2321;42.704;23.384;2023-04-05T02:25:09;94976.69;;;0.96;nan
4617;BME280;2321;42.704;23.384;2023-04-05T02:27:37;94979.97;;;0.98;nan
4617;BME280;2321;42.704;23.384;2023-04-05T02:30:05;94980.97;;;0.97;nan
4617;BME280;2321;42.704;23.384;2023-04-05T02:32:32;94981.78;;;0.98;nan
4617;BME280;2321;42.704;23.384;2023-04-05T02:34:59;94978.19;;;0.99;nan
4617;BME280;2321;42.704;23.384;2023-04-05T02:37:27;94977.91;;;1.02;nan
4617;BME280;2321;42.704;23.384;2023-04-05T02:39:54;94972.38;;;1.05;nan
4617;BME280;2321;42.704;23.384;2023-04-05T02:42:21;94966.28;;;1.05;nan
4617;BME280;2321;42.704;23.384;2023-04-05T02:44:48;94977.63;;;1.05;nan
4617;BME280;2321;42.704;23.384;2023-04-05T02:47:14;94979.28;;;1.06;nan
4617;BME280;2321;42.704;23.384;2023-04-05T02:49:46;94974.03;;;1.06;nan
4617;BME280;2321;42.704;23.384;2023-04-05T02:52:12;94974.16;;;1.05;nan
4617;BME280;2321;42.704;23.384;2023-04-05T02:54:41;94965.16;;;1.17;nan
4617;BME280;2321;42.704;23.384;2023-04-05T02:57:08;94975.53;;;1.09;nan
4617;BME280;2321;42.704;23.384;2023-04-05T02:59:36;94978.72;;;1.03;nan
4617;BME280;2321;42.704;23.384;2023-04-05T03:02:03;94975.94;;;1.04;nan
4617;BME280;2321;42.704;23.384;2023-04-05T03:04:30;94975.00;;;1.05;nan
4617;BME280;2321;42.704;23.384;2023-04-05T03:06:59;94980.41;;;1.04;nan
4617;BME280;2321;42.704;23.384;2023-04-05T03:09:27;94972.66;;;1.02;nan
4617;BME280;2321;42.704;23.384;2023-04-05T03:12:00;94972.81;;;1.01;nan
4617;BME280;2321;42.704;23.384;2023-04-05T03:14:28;94978.88;;;1.01;nan
4617;BME280;2321;42.704;23.384;2023-04-05T03:16:55;94975.44;;;1.01;nan
4617;BME280;2321;42.704;23.384;2023-04-05T03:19:22;94980.81;;;0.99;nan
4617;BME280;2321;42.704;23.384;2023-04-05T03:21:50;94975.44;;;1.01;nan
4617;BME280;2321;42.704;23.384;2023-04-05T03:24:17;94964.94;;;1.01;nan
4617;BME280;2321;42.704;23.384;2023-04-05T03:26:46;94976.41;;;1.00;nan
4617;BME280;2321;42.704;23.384;2023-04-05T03:29:14;94980.81;;;0.99;nan
4617;BME280;2321;42.704;23.384;2023-04-05T03:31:41;94982.31;;;1.02;nan
4617;BME280;2321;42.704;23.384;2023-04-05T03:34:08;94979.84;;;1.00;nan
4617;BME280;2321;42.704;23.384;2023-04-05T03:36:35;94974.03;;;1.06;nan
4617;BME280;2321;42.704;23.384;2023-04-05T03:39:07;94974.03;;;1.06;nan
4617;BME280;2321;42.704;23.384;2023-04-05T03:41:34;94982.84;;;1.05;nan
4617;BME280;2321;42.704;23.384;2023-04-05T03:44:01;94979.94;;;1.08;nan
4617;BME280;2321;42.704;23.384;2023-04-05T03:46:30;94977.72;;;1.14;nan
4617;BME280;2321;42.704;23.384;2023-04-05T03:48:57;94985.75;;;1.12;nan
4617;BME280;2321;42.704;23.384;2023-04-05T03:51:24;94982.00;;;1.15;nan
4617;BME280;2321;42.704;23.384;2023-04-05T03:53:51;94991.66;;;1.14;nan
4617;BME280;2321;42.704;23.384;2023-04-05T03:56:18;94987.69;;;1.10;nan
4617;BME280;2321;42.704;23.384;2023-04-05T03:58:45;94981.75;;;1.08;nan
4617;BME280;2321;42.704;23.384;2023-04-05T04:01:12;94989.06;;;1.04;nan
4617;BME280;2321;42.704;23.384;2023-04-05T04:03:40;95008.50;;;1.12;nan
4617;BME280;2321;42.704;23.384;2023-04-05T04:06:07;94994.63;;;1.01;nan
4617;BME280;2321;42.704;23.384;2023-04-05T04:08:34;95005.22;;;1.00;nan
4617;BME280;2321;42.704;23.384;2023-04-05T04:11:01;94946.41;;;0.64;nan
4617;BME280;2321;42.704;23.384;2023-04-05T04:13:28;95000.28;;;0.96;nan
4617;BME280;2321;42.704;23.384;2023-04-05T04:15:55;94999.44;;;0.96;nan
4617;BME280;2321;42.704;23.384;2023-04-05T04:18:22;94997.38;;;0.90;nan
4617;BME280;2321;42.704;23.384;2023-04-05T04:20:50;94997.56;;;0.78;nan
4617;BME280;2321;42.704;23.384;2023-04-05T04:23:17;94998.38;;;0.79;nan
4617;BME280;2321;42.704;23.384;2023-04-05T04:25:45;95002.34;;;0.83;nan
4617;BME280;2321;42.704;23.384;2023-04-05T04:28:11;95006.38;;;0.87;nan
4617;BME280;2321;42.704;23.384;2023-04-05T04:30:42;95009.13;;;0.85;nan
4617;BME280;2321;42.704;23.384;2023-04-05T04:33:09;95009.81;;;0.88;nan
4617;BME280;2321;42.704;23.384;2023-04-05T04:35:35;94999.47;;;0.86;nan
4617;BME280;2321;42.704;23.384;2023-04-05T04:38:05;95004.56;;;0.88;nan
4617;BME280;2321;42.704;23.384;2023-04-05T04:40:33;94982.50;;;0.80;nan
4617;BME280;2321;42.704;23.384;2023-04-05T04:43:03;95006.09;;;0.90;nan
4617;BME280;2321;42.704;23.384;2023-04-05T04:45:30;95007.19;;;0.88;nan
4617;BME280;2321;42.704;23.384;2023-04-05T04:47:59;94986.63;;;0.83;nan
4617;BME280;2321;42.704;23.384;2023-04-05T04:50:30;95008.13;;;0.96;nan
4617;BME280;2321;42.704;23.384;2023-04-05T04:52:58;95000.94;;;0.98;nan
4617;BME280;2321;42.704;23.384;2023-04-05T04:55:26;95010.63;;;0.98;nan
4617;BME280;2321;42.704;23.384;2023-04-05T04:57:54;95015.03;;;0.97;nan
4617;BME280;2321;42.704;23.384;2023-04-05T05:00:22;95009.38;;;0.92;nan
4617;BME280;2321;42.704;23.384;2023-04-05T05:02:51;95011.31;;;1.00;nan
4617;BME280;2321;42.704;23.384;2023-04-05T05:05:18;95011.16;;;1.02;nan
4617;BME280;2321;42.704;23.384;2023-04-05T05:07:47;95005.78;;;1.03;nan
4617;BME280;2321;42.704;23.384;2023-04-05T05:10:14;95012.38;;;1.07;nan
4617;BME280;2321;42.704;23.384;2023-04-05T05:12:42;95017.91;;;1.04;nan
4617;BME280;2321;42.704;23.384;2023-04-05T05:15:10;95022.34;;;1.04;nan
4617;BME280;2321;42.704;23.384;2023-04-05T05:17:37;95016.53;;;1.10;nan
4617;BME280;2321;42.704;23.384;2023-04-05T05:20:05;95012.09;;;1.11;nan
4617;BME280;2321;42.704;23.384;2023-04-05T05:22:34;95023.56;;;1.10;nan
4617;BME280;2321;42.704;23.384;2023-04-05T05:25:01;95028.81;;;1.10;nan
4617;BME280;2321;42.704;23.384;2023-04-05T05:27:28;95024.81;;;1.05;nan
4617;BME280;2321;42.704;23.384;2023-04-05T05:29:56;95028.66;;;1.11;nan
4617;BME280;2321;42.704;23.384;2023-04-05T05:32:23;95036.97;;;1.06;nan
4617;BME280;2321;42.704;23.384;2023-04-05T05:34:50;95029.78;;;1.08;nan
4617;BME280;2321;42.704;23.384;2023-04-05T05:37:17;95037.91;;;1.15;nan
4617;BME280;2321;42.704;23.384;2023-04-05T05:39:44;95033.59;;;1.24;nan
4617;BME280;2321;42.704;23.384;2023-04-05T05:42:11;95033.03;;;1.30;nan
4617;BME280;2321;42.704;23.384;2023-04-05T05:44:38;95025.84;;;1.33;nan
4617;BME280;2321;42.704;23.384;2023-04-05T05:47:06;95029.16;;;1.35;nan
4617;BME280;2321;42.704;23.384;2023-04-05T05:49:33;95027.78;;;1.30;nan
4617;BME280;2321;42.704;23.384;2023-04-05T05:52:00;95024.78;;;1.25;nan
4617;BME280;2321;42.704;23.384;2023-04-05T05:54:26;95017.84;;;1.24;nan
4617;BME280;2321;42.704;23.384;2023-04-05T05:56:53;95025.19;;;1.21;nan
4617;BME280;2321;42.704;23.384;2023-04-05T05:59:20;95024.91;;;1.24;nan
4617;BME280;2321;42.704;23.384;2023-04-05T06:01:49;95021.03;;;1.28;nan
4617;BME280;2321;42.704;23.384;2023-04-05T06:04:18;95031.06;;;1.33;nan
4617;BME280;2321;42.704;23.384;2023-04-05T06:06:44;95030.94;;;1.34;nan
4617;BME280;2321;42.704;23.384;2023-04-05T06:09:12;95035.19;;;1.45;nan
4617;BME280;2321;42.704;23.384;2023-04-05T06:11:39;95031.16;;;1.51;nan
4617;BME280;2321;42.704;23.384;2023-04-05T06:14:06;95030.47;;;1.49;nan
4617;BME280;2321;42.704;23.384;2023-04-05T06:16:34;95034.75;;;1.50;nan
4617;BME280;2321;42.704;23.384;2023-04-05T06:19:01;95038.06;;;1.52;nan
4617;BME280;2321;42.704;23.384;2023-04-05T06:21:29;95043.41;;;1.60;nan
4617;BME280;2321;42.704;23.384;2023-04-05T06:23:56;95045.81;;;1.72;nan
4617;BME280;2321;42.704;23.384;2023-04-05T06:26:24;95043.16;;;1.82;nan
4617;BME280;2321;42.704;23.384;2023-04-05T06:28:53;95052.78;;;1.91;nan
4617;BME280;2321;42.704;23.384;2023-04-05T06:31:25;95058.34;;;1.88;nan
4617;BME280;2321;42.704;23.384;2023-04-05T06:33:52;95044.09;;;1.91;nan
4617;BME280;2321;42.704;23.384;2023-04-05T06:36:19;95054.88;;;1.88;nan
4617;BME280;2321;42.704;23.384;2023-04-05T06:38:47;95055.03;;;1.86;nan
4617;BME280;2321;42.704;23.384;2023-04-05T06:41:14;95055.72;;;1.88;nan
4617;BME280;2321;42.704;23.384;2023-04-05T06:43:41;95049.59;;;1.98;nan
4617;BME280;2321;42.704;23.384;2023-04-05T06:46:08;95054.69;;;1.99;nan
4617;BME280;2321;42.704;23.384;2023-04-05T06:48:36;95056.75;;;2.05;nan
4617;BME280;2321;42.704;23.384;2023-04-05T06:51:04;95065.28;;;2.08;nan
4617;BME280;2321;42.704;23.384;2023-04-05T06:53:31;95065.97;;;2.10;nan
4617;BME280;2321;42.704;23.384;2023-04-05T06:55:59;95076.34;;;2.11;nan
4617;BME280;2321;42.704;23.384;2023-04-05T06:58:26;95074.81;;;2.09;nan
4617;BME280;2321;42.704;23.384;2023-04-05T07:00:53;95079.53;;;2.05;nan
4617;BME280;2321;42.704;23.384;2023-04-05T07:03:20;95075.63;;;2.09;nan
4617;BME280;2321;42.704;23.384;2023-04-05T07:05:50;95086.00;;;2.11;nan
4617;BME280;2321;42.704;23.384;2023-04-05T07:08:19;95098.25;;;2.20;nan
4617;BME280;2321;42.704;23.384;2023-04-05T07:10:46;95091.72;;;2.24;nan
4617;BME280;2321;42.704;23.384;2023-04-05T07:13:15;95096.25;;;2.32;nan
4617;BME280;2321;42.704;23.384;2023-04-05T07:15:42;95109.22;;;2.34;nan
4617;BME280;2321;42.704;23.384;2023-04-05T07:18:10;95104.13;;;2.32;nan
4617;BME280;2321;42.704;23.384;2023-04-05T07:20:37;95100.81;;;2.30;nan
4617;BME280;2321;42.704;23.384;2023-04-05T07:23:04;95109.00;;;2.27;nan
4617;BME280;2321;42.704;23.384;2023-04-05T07:25:31;95104.56;;;2.27;nan
4617;BME280;2321;42.704;23.384;2023-04-05T07:27:59;95105.25;;;2.30;nan
4617;BME280;2321;42.704;23.384;2023-04-05T07:30:27;95099.84;;;2.31;nan
4617;BME280;2321;42.704;23.384;2023-04-05T07:32:56;95105.47;;;2.36;nan
4617;BME280;2321;42.704;23.384;2023-04-05T07:35:23;95107.88;;;2.30;nan
4617;BME280;2321;42.704;23.384;2023-04-05T07:37:50;95109.31;;;2.24;nan
4617;BME280;2321;42.704;23.384;2023-04-05T07:40:17;95113.81;;;2.32;nan
4617;BME280;2321;42.704;23.384;2023-04-05T07:42:44;95111.19;;;2.32;nan
4617;BME280;2321;42.704;23.384;2023-04-05T07:45:11;95118.97;;;2.23;nan
4617;BME280;2321;42.704;23.384;2023-04-05T07:47:39;95122.19;;;2.17;nan
4617;BME280;2321;42.704;23.384;2023-04-05T07:50:06;95126.47;;;2.18;nan
4617;BME280;2321;42.704;23.384;2023-04-05T07:52:34;95130.75;;;2.19;nan
4617;BME280;2321;42.704;23.384;2023-04-05T07:55:01;95122.44;;;2.24;nan
4617;BME280;2321;42.704;23.384;2023-04-05T07:57:28;95128.38;;;2.26;nan
4617;BME280;2321;42.704;23.384;2023-04-05T07:59:55;95128.22;;;2.27;nan
4617;BME280;2321;42.704;23.384;2023-04-05T08:02:22;95141.28;;;2.37;nan
4617;BME280;2321;42.704;23.384;2023-04-05T08:04:50;95144.50;;;2.31;nan
4617;BME280;2321;42.704;23.384;2023-04-05T08:07:17;95146.59;;;2.27;nan
4617;BME280;2321;42.704;23.384;2023-04-05T08:09:44;95137.22;;;2.25;nan
4617;BME280;2321;42.704;23.384;2023-04-05T08:12:11;95143.16;;;2.27;nan
4617;BME280;2321;42.704;23.384;2023-04-05T08:14:38;95154.00;;;2.14;nan
4617;BME280;2321;42.704;23.384;2023-04-05T08:17:05;95140.59;;;2.17;nan
4617;BME280;2321;42.704;23.384;2023-04-05T08:19:31;95154.00;;;2.14;nan
4617;BME280;2321;42.704;23.384;2023-04-05T08:22:00;95144.84;;;2.18;nan
4617;BME280;2321;42.704;23.384;2023-04-05T08:24:27;95155.97;;;2.30;nan
4617;BME280;2321;42.704;23.384;2023-04-05T08:26:53;95159.84;;;2.36;nan
4617;BME280;2321;42.704;23.384;2023-04-05T08:29:20;95146.41;;;2.39;nan
4617;BME280;2321;42.704;23.384;2023-04-05T08:31:47;95153.72;;;2.45;nan
4617;BME280;2321;42.704;23.384;2023-04-05T08:34:14;95169.56;;;2.54;nan
4617;BME280;2321;42.704;23.384;2023-04-05T08:36:41;95147.03;;;2.51;nan
4617;BME280;2321;42.704;23.384;2023-04-05T08:39:09;95152.97;;;2.53;nan
4617;BME280;2321;42.704;23.384;2023-04-05T08:41:40;95162.22;;;2.57;nan
4617;BME280;2321;42.704;23.384;2023-04-05T08:44:08;95166.31;;;2.42;nan
4617;BME280;2321;42.704;23.384;2023-04-05T08:46:36;95162.47;;;2.36;nan
4617;BME280;2321;42.704;23.384;2023-04-05T08:49:04;95165.78;;;2.38;nan
4617;BME280;2321;42.704;23.384;2023-04-05T08:51:33;95175.84;;;2.43;nan
4617;BME280;2321;42.704;23.384;2023-04-05T08:54:02;95171.56;;;2.42;nan
4617;BME280;2321;42.704;23.384;2023-04-05T08:56:32;95173.22;;;2.43;nan
4617;BME280;2321;42.704;23.384;2023-04-05T08:59:02;95173.28;;;2.33;nan
4617;BME280;2321;42.704;23.384;2023-04-05T09:01:30;95181.47;;;2.30;nan
4617;BME280;2321;42.704;23.384;2023-04-05T09:04:00;95187.09;;;2.35;nan
4617;BME280;2321;42.704;23.384;2023-04-05T09:06:28;95195.91;;;2.44;nan
4617;BME280;2321;42.704;23.384;2023-04-05T09:08:56;95189.75;;;2.53;nan
4617;BME280;2321;42.704;23.384;2023-04-05T09:11:24;95190.72;;;2.52;nan
4617;BME280;2321;42.704;23.384;2023-04-05T09:13:52;95189.00;;;2.61;nan
4617;BME280;2321;42.704;23.384;2023-04-05T09:16:19;95182.03;;;2.70;nan
4617;BME280;2321;42.704;23.384;2023-04-05T09:18:46;95197.44;;;2.65;nan
4617;BME280;2321;42.704;23.384;2023-04-05T09:21:13;95192.34;;;2.63;nan
4617;BME280;2321;42.704;23.384;2023-04-05T09:23:51;95195.09;;;2.61;nan
4617;BME280;2321;42.704;23.384;2023-04-05T09:26:19;95188.22;;;2.60;nan
4617;BME280;2321;42.704;23.384;2023-04-05T09:28:47;95197.72;;;2.61;nan
4617;BME280;2321;42.704;23.384;2023-04-05T09:31:32;95191.66;;;2.61;nan
4617;BME280;2321;42.704;23.384;2023-04-05T09:34:00;95185.97;;;2.66;nan
4617;BME280;2321;42.704;23.384;2023-04-05T09:36:27;95188.84;;;2.72;nan
4617;BME280;2321;42.704;23.384;2023-04-05T09:39:04;95189.25;;;2.68;nan
4617;BME280;2321;42.704;23.384;2023-04-05T09:41:32;95199.84;;;2.76;nan
4617;BME280;2321;42.704;23.384;2023-04-05T09:43:59;95184.91;;;2.77;nan
4617;BME280;2321;42.704;23.384;2023-04-05T09:46:31;95183.06;;;2.87;nan
4617;BME280;2321;42.704;23.384;2023-04-05T09:49:00;95181.88;;;3.00;nan
4617;BME280;2321;42.704;23.384;2023-04-05T09:51:32;95186.28;;;3.18;nan
4617;BME280;2321;42.704;23.384;2023-04-05T09:54:01;95185.16;;;3.20;nan
4617;BME280;2321;42.704;23.384;2023-04-05T09:56:31;95194.19;;;3.18;nan
4617;BME280;2321;42.704;23.384;2023-04-05T09:58:59;95184.31;;;3.20;nan
4617;BME280;2321;42.704;23.384;2023-04-05T10:01:29;95183.72;;;3.08;nan
4617;BME280;2321;42.704;23.384;2023-04-05T10:03:58;95183.72;;;3.08;nan
4617;BME280;2321;42.704;23.384;2023-04-05T10:06:37;95192.22;;;3.20;nan
4617;BME280;2321;42.704;23.384;2023-04-05T10:09:05;95179.47;;;3.25;nan
4617;BME280;2321;42.704;23.384;2023-04-05T10:11:32;95189.50;;;3.30;nan
4617;BME280;2321;42.704;23.384;2023-04-05T10:14:01;95178.03;;;3.12;nan
4617;BME280;2321;42.704;23.384;2023-04-05T10:16:31;95184.84;;;3.23;nan
4617;BME280;2321;42.704;23.384;2023-04-05T10:19:00;95183.94;;;3.33;nan
4617;BME280;2321;42.704;23.384;2023-04-05T10:21:32;95183.69;;;3.44;nan
4617;BME280;2321;42.704;23.384;2023-04-05T10:24:05;95182.97;;;3.52;nan
4617;BME280;2321;42.704;23.384;2023-04-05T10:26:39;95189.78;;;3.45;nan
4617;BME280;2321;42.704;23.384;2023-04-05T10:29:11;95179.53;;;3.60;nan
4617;BME280;2321;42.704;23.384;2023-04-05T10:31:49;95191.22;;;3.57;nan
4617;BME280;2321;42.704;23.384;2023-04-05T10:34:28;95179.50;;;3.52;nan
4617;BME280;2321;42.704;23.384;2023-04-05T10:36:59;95196.56;;;3.74;nan
4617;BME280;2321;42.704;23.384;2023-04-05T10:39:28;95189.97;;;3.97;nan
4617;BME280;2321;42.704;23.384;2023-04-05T10:41:59;95180.47;;;4.04;nan
4617;BME280;2321;42.704;23.384;2023-04-05T10:44:29;95183.44;;;4.01;nan
4617;BME280;2321;42.704;23.384;2023-04-05T10:46:57;95183.34;;;3.92;nan
4617;BME280;2321;42.704;23.384;2023-04-05T10:49:31;95194.59;;;3.95;nan
4617;BME280;2321;42.704;23.384;2023-04-05T10:51:59;95179.91;;;3.92;nan
4617;BME280;2321;42.704;23.384;2023-04-05T10:54:27;95189.59;;;3.83;nan
4617;BME280;2321;42.704;23.384;2023-04-05T10:56:55;95184.75;;;3.78;nan
4617;BME280;2321;42.704;23.384;2023-04-05T10:59:23;95196.13;;;3.79;nan
4617;BME280;2321;42.704;23.384;2023-04-05T11:01:52;95201.28;;;3.62;nan
4617;BME280;2321;42.704;23.384;2023-04-05T11:04:19;95190.06;;;3.87;nan
4617;BME280;2321;42.704;23.384;2023-04-05T11:07:10;95203.19;;;4.05;nan
4617;BME280;2321;42.704;23.384;2023-04-05T11:09:37;95196.63;;;4.09;nan
4617;BME280;2321;42.704;23.384;2023-04-05T11:12:06;95207.44;;;3.98;nan
4617;BME280;2321;42.704;23.384;2023-04-05T11:14:34;95194.94;;;4.00;nan
4617;BME280;2321;42.704;23.384;2023-04-05T11:17:02;95206.75;;;3.96;nan
4617;BME280;2321;42.704;23.384;2023-04-05T11:19:47;95188.31;;;3.96;nan
4617;BME280;2321;42.704;23.384;2023-04-05T11:22:26;95211.41;;;4.02;nan
4617;BME280;2321;42.704;23.384;2023-04-05T11:24:54;95194.03;;;4.18;nan
4617;BME280;2321;42.704;23.384;2023-04-05T11:27:25;95196.16;;;4.49;nan
4617;BME280;2321;42.704;23.384;2023-04-05T11:29:53;95198.41;;;4.35;nan
4617;BME280;2321;42.704;23.384;2023-04-05T11:32:21;95184.19;;;4.20;nan
4617;BME280;2321;42.704;23.384;2023-04-05T11:34:59;95224.38;;;4.22;nan
4617;BME280;2321;42.704;23.384;2023-04-05T11:38:04;95223.00;;;4.09;nan
4617;BME280;2321;42.704;23.384;2023-04-05T11:40:33;95200.69;;;3.95;nan
4617;BME280;2321;42.704;23.384;2023-04-05T11:43:02;95195.09;;;3.72;nan
4617;BME280;2321;42.704;23.384;2023-04-05T11:45:30;95193.19;;;3.82;nan
4617;BME280;2321;42.704;23.384;2023-04-05T11:47:59;95206.66;;;3.79;nan
4617;BME280;2321;42.704;23.384;2023-04-05T11:50:27;95203.19;;;3.78;nan
4617;BME280;2321;42.704;23.384;2023-04-05T11:53:11;95200.81;;;3.94;nan
4617;BME280;2321;42.704;23.384;2023-04-05T11:55:39;95194.53;;;3.86;nan
4617;BME280;2321;42.704;23.384;2023-04-05T11:58:13;95204.88;;;4.14;nan
4617;BME280;2321;42.704;23.384;2023-04-05T12:00:41;95212.69;;;4.24;nan
4617;BME280;2321;42.704;23.384;2023-04-05T12:03:11;95211.81;;;4.16;nan
4617;BME280;2321;42.704;23.384;2023-04-05T12:05:48;95204.84;;;4.06;nan
4617;BME280;2321;42.704;23.384;2023-04-05T12:08:17;95195.41;;;3.95;nan
4617;BME280;2321;42.704;23.384;2023-04-05T12:10:52;95210.19;;;3.88;nan
4617;BME280;2321;42.704;23.384;2023-04-05T12:13:25;95195.81;;;3.82;nan
4617;BME280;2321;42.704;23.384;2023-04-05T12:15:51;95194.72;;;3.93;nan
4617;BME280;2321;42.704;23.384;2023-04-05T12:18:19;95202.69;;;4.01;nan
4617;BME280;2321;42.704;23.384;2023-04-05T12:20:46;95202.22;;;4.06;nan
4617;BME280;2321;42.704;23.384;2023-04-05T12:23:13;95207.13;;;4.01;nan
4617;BME280;2321;42.704;23.384;2023-04-05T12:25:45;95196.78;;;3.81;nan
4617;BME280;2321;42.704;23.384;2023-04-05T12:28:12;95200.38;;;3.98;nan
4617;BME280;2321;42.704;23.384;2023-04-05T12:30:47;95213.69;;;3.97;nan
4617;BME280;2321;42.704;23.384;2023-04-05T12:33:15;95172.47;;;3.87;nan
4617;BME280;2321;42.704;23.384;2023-04-05T12:35:42;95194.53;;;4.13;nan
4617;BME280;2321;42.704;23.384;2023-04-05T12:38:09;95202.97;;;4.25;nan
4617;BME280;2321;42.704;23.384;2023-04-05T12:40:43;95189.50;;;4.28;nan
4617;BME280;2321;42.704;23.384;2023-04-05T12:43:10;95211.09;;;4.32;nan
4617;BME280;2321;42.704;23.384;2023-04-05T12:45:43;95209.13;;;4.42;nan
4617;BME280;2321;42.704;23.384;2023-04-05T12:48:11;95195.16;;;4.07;nan
4617;BME280;2321;42.704;23.384;2023-04-05T12:50:42;95200.00;;;3.93;nan
4617;BME280;2321;42.704;23.384;2023-04-05T12:53:14;95197.53;;;3.91;nan
4617;BME280;2321;42.704;23.384;2023-04-05T12:55:49;95209.97;;;4.08;nan
4617;BME280;2321;42.704;23.384;2023-04-05T12:58:17;95206.38;;;4.17;nan
4617;BME280;2321;42.704;23.384;2023-04-05T13:00:45;95218.50;;;4.36;nan
4617;BME280;2321;42.704;23.384;2023-04-05T13:03:16;95201.81;;;4.63;nan
4617;BME280;2321;42.704;23.384;2023-04-05T13:05:45;95189.31;;;4.73;nan
4617;BME280;2321;42.704;23.384;2023-04-05T13:08:12;95194.91;;;4.78;nan
4617;BME280;2321;42.704;23.384;2023-04-05T13:10:38;95193.91;;;4.63;nan
4617;BME280;2321;42.704;23.384;2023-04-05T13:13:07;95193.00;;;4.45;nan
4617;BME280;2321;42.704;23.384;2023-04-05T13:15:33;95206.28;;;4.27;nan
4617;BME280;2321;42.704;23.384;2023-04-05T13:18:00;95205.44;;;4.27;nan
4617;BME280;2321;42.704;23.384;2023-04-05T13:20:27;95206.03;;;4.12;nan
4617;BME280;2321;42.704;23.384;2023-04-05T13:22:54;95225.72;;;3.99;nan
4617;BME280;2321;42.704;23.384;2023-04-05T13:25:21;95201.44;;;3.87;nan
4617;BME280;2321;42.704;23.384;2023-04-05T13:27:48;95183.31;;;3.84;nan
4617;BME280;2321;42.704;23.384;2023-04-05T13:30:16;95197.19;;;4.21;nan
4617;BME280;2321;42.704;23.384;2023-04-05T13:32:43;95195.19;;;4.50;nan
4617;BME280;2321;42.704;23.384;2023-04-05T13:35:10;95179.03;;;4.53;nan
4617;BME280;2321;42.704;23.384;2023-04-05T13:37:37;95197.00;;;4.50;nan
4617;BME280;2321;42.704;23.384;2023-04-05T13:40:05;95203.50;;;4.02;nan
4617;BME280;2321;42.704;23.384;2023-04-05T13:42:32;95200.31;;;3.90;nan
4617;BME280;2321;42.704;23.384;2023-04-05T13:44:59;95197.97;;;3.87;nan
4617;BME280;2321;42.704;23.384;2023-04-05T13:47:28;95200.66;;;3.68;nan
4617;BME280;2321;42.704;23.384;2023-04-05T13:49:54;95206.69;;;3.61;nan
4617;BME280;2321;42.704;23.384;2023-04-05T13:52:21;95202.63;;;3.66;nan
4617;BME280;2321;42.704;23.384;2023-04-05T13:54:50;95198.84;;;3.69;nan
4617;BME280;2321;42.704;23.384;2023-04-05T13:57:17;95206.09;;;3.67;nan